sensor_id;sensor_type;location;lat;lon;timestamp;P1;durP1;ratioP1;P2;durP2;ratioP2
21392;SDS011;10857;52.228;21.026;2024-03-29T00:02:04;13.88;;;8.25;;
21392;SDS011;10857;52.228;21.026;2024-03-29T00:04:30;14.57;;;8.07;;
21392;SDS011;10857;52.228;21.026;2024-03-29T00:06:57;17.37;;;8.70;;
21392;SDS011;10857;52.228;21.026;2024-03-29T00:09:23;13.47;;;7.80;;
21392;SDS011;10857;52.228;21.026;2024-03-29T00:11:49;14.17;;;8.23;;
21392;SDS011;10857;52.228;21.026;2024-03-29T00:14:15;14.77;;;8.10;;
21392;SDS011;10857;52.228;21.026;2024-03-29T00:16:41;13.70;;;7.83;;
21392;SDS011;10857;52.228;21.026;2024-03-29T00:19:07;11.33;;;7.27;;
21392;SDS011;10857;52.228;21.026;2024-03-29T00:21:33;12.07;;;7.10;;
21392;SDS011;10857;52.228;21.026;2024-03-29T00:23:59;12.50;;;6.90;;
21392;SDS011;10857;52.228;21.026;2024-03-29T00:26:25;12.70;;;6.90;;
21392;SDS011;10857;52.228;21.026;2024-03-29T00:28:51;12.60;;;7.00;;
21392;SDS011;10857;52.228;21.026;2024-03-29T00:31:17;10.90;;;6.60;;
21392;SDS011;10857;52.228;21.026;2024-03-29T00:33:43;11.43;;;6.23;;
21392;SDS011;10857;52.228;21.026;2024-03-29T00:36:09;12.47;;;6.23;;
21392;SDS011;10857;52.228;21.026;2024-03-29T00:38:35;9.47;;;5.80;;
21392;SDS011;10857;52.228;21.026;2024-03-29T00:41:01;12.13;;;5.77;;
21392;SDS011;10857;52.228;21.026;2024-03-29T00:43:27;11.63;;;6.33;;
21392;SDS011;10857;52.228;21.026;2024-03-29T00:45:53;10.33;;;5.80;;
21392;SDS011;10857;52.228;21.026;2024-03-29T00:48:19;10.47;;;6.17;;
21392;SDS011;10857;52.228;21.026;2024-03-29T00:50:46;13.67;;;6.20;;
21392;SDS011;10857;52.228;21.026;2024-03-29T00:53:12;10.10;;;5.77;;
21392;SDS011;10857;52.228;21.026;2024-03-29T00:55:38;8.93;;;5.60;;
21392;SDS011;10857;52.228;21.026;2024-03-29T00:58:04;11.90;;;5.53;;
21392;SDS011;10857;52.228;21.026;2024-03-29T01:00:30;10.47;;;5.53;;
21392;SDS011;10857;52.228;21.026;2024-03-29T01:02:56;11.10;;;5.70;;
21392;SDS011;10857;52.228;21.026;2024-03-29T01:05:23;10.03;;;5.73;;
21392;SDS011;10857;52.228;21.026;2024-03-29T01:07:49;8.60;;;5.23;;
21392;SDS011;10857;52.228;21.026;2024-03-29T01:13:00;11.80;;;5.10;;
21392;SDS011;10857;52.228;21.026;2024-03-29T01:15:27;9.13;;;4.90;;
21392;SDS011;10857;52.228;21.026;2024-03-29T01:17:53;9.33;;;5.00;;
21392;SDS011;10857;52.228;21.026;2024-03-29T01:20:38;6.63;;;4.60;;
21392;SDS011;10857;52.228;21.026;2024-03-29T01:23:04;10.17;;;4.20;;
21392;SDS011;10857;52.228;21.026;2024-03-29T01:25:30;5.13;;;3.80;;
21392;SDS011;10857;52.228;21.026;2024-03-29T01:27:56;7.40;;;3.57;;
21392;SDS011;10857;52.228;21.026;2024-03-29T01:30:41;5.33;;;3.70;;
21392;SDS011;10857;52.228;21.026;2024-03-29T01:33:07;6.63;;;4.20;;
21392;SDS011;10857;52.228;21.026;2024-03-29T01:35:33;5.97;;;4.00;;
21392;SDS011;10857;52.228;21.026;2024-03-29T01:37:59;7.87;;;3.77;;
21392;SDS011;10857;52.228;21.026;2024-03-29T01:40:25;7.57;;;3.80;;
21392;SDS011;10857;52.228;21.026;2024-03-29T01:42:54;6.73;;;3.77;;
21392;SDS011;10857;52.228;21.026;2024-03-29T01:45:20;5.97;;;3.67;;
21392;SDS011;10857;52.228;21.026;2024-03-29T01:47:47;6.03;;;3.80;;
21392;SDS011;10857;52.228;21.026;2024-03-29T01:50:13;7.63;;;3.83;;
21392;SDS011;10857;52.228;21.026;2024-03-29T01:52:39;9.17;;;3.73;;
21392;SDS011;10857;52.228;21.026;2024-03-29T01:55:06;5.57;;;3.60;;
21392;SDS011;10857;52.228;21.026;2024-03-29T01:57:33;5.67;;;3.20;;
21392;SDS011;10857;52.228;21.026;2024-03-29T01:59:59;7.53;;;3.70;;
21392;SDS011;10857;52.228;21.026;2024-03-29T02:02:25;4.57;;;3.30;;
21392;SDS011;10857;52.228;21.026;2024-03-29T02:05:10;4.30;;;3.40;;
21392;SDS011;10857;52.228;21.026;2024-03-29T02:07:55;4.23;;;3.10;;
21392;SDS011;10857;52.228;21.026;2024-03-29T02:10:22;4.97;;;3.07;;
21392;SDS011;10857;52.228;21.026;2024-03-29T02:12:48;5.77;;;3.00;;
21392;SDS011;10857;52.228;21.026;2024-03-29T02:15:17;5.40;;;3.20;;
21392;SDS011;10857;52.228;21.026;2024-03-29T02:17:43;5.17;;;3.50;;
21392;SDS011;10857;52.228;21.026;2024-03-29T02:20:28;4.83;;;3.23;;
21392;SDS011;10857;52.228;21.026;2024-03-29T02:22:56;4.30;;;2.90;;
21392;SDS011;10857;52.228;21.026;2024-03-29T02:25:27;5.03;;;3.00;;
21392;SDS011;10857;52.228;21.026;2024-03-29T02:27:54;6.20;;;3.00;;
21392;SDS011;10857;52.228;21.026;2024-03-29T02:30:20;6.03;;;2.90;;
21392;SDS011;10857;52.228;21.026;2024-03-29T02:32:46;5.67;;;3.00;;
21392;SDS011;10857;52.228;21.026;2024-03-29T02:35:12;5.33;;;3.10;;
21392;SDS011;10857;52.228;21.026;2024-03-29T02:37:38;3.93;;;2.90;;
21392;SDS011;10857;52.228;21.026;2024-03-29T02:40:05;4.27;;;2.80;;
21392;SDS011;10857;52.228;21.026;2024-03-29T02:42:31;4.63;;;2.87;;
21392;SDS011;10857;52.228;21.026;2024-03-29T02:44:58;3.77;;;2.93;;
21392;SDS011;10857;52.228;21.026;2024-03-29T02:47:43;5.90;;;3.07;;
21392;SDS011;10857;52.228;21.026;2024-03-29T02:50:09;4.27;;;3.00;;
21392;SDS011;10857;52.228;21.026;2024-03-29T02:52:36;6.33;;;3.33;;
21392;SDS011;10857;52.228;21.026;2024-03-29T02:55:02;4.87;;;3.20;;
21392;SDS011;10857;52.228;21.026;2024-03-29T02:57:29;5.10;;;2.97;;
21392;SDS011;10857;52.228;21.026;2024-03-29T03:00:14;5.20;;;3.23;;
21392;SDS011;10857;52.228;21.026;2024-03-29T03:02:40;4.90;;;3.20;;
21392;SDS011;10857;52.228;21.026;2024-03-29T03:05:06;7.13;;;3.17;;
21392;SDS011;10857;52.228;21.026;2024-03-29T03:07:34;4.40;;;2.90;;
21392;SDS011;10857;52.228;21.026;2024-03-29T03:10:19;4.00;;;3.10;;
21392;SDS011;10857;52.228;21.026;2024-03-29T03:13:04;4.83;;;2.90;;
21392;SDS011;10857;52.228;21.026;2024-03-29T03:15:30;7.53;;;3.20;;
21392;SDS011;10857;52.228;21.026;2024-03-29T03:17:56;4.40;;;3.17;;
21392;SDS011;10857;52.228;21.026;2024-03-29T03:20:23;5.47;;;3.03;;
21392;SDS011;10857;52.228;21.026;2024-03-29T03:22:53;4.03;;;3.20;;
21392;SDS011;10857;52.228;21.026;2024-03-29T03:25:21;4.77;;;3.07;;
21392;SDS011;10857;52.228;21.026;2024-03-29T03:27:47;4.83;;;3.10;;
21392;SDS011;10857;52.228;21.026;2024-03-29T03:30:13;4.47;;;2.93;;
21392;SDS011;10857;52.228;21.026;2024-03-29T03:32:40;4.57;;;2.80;;
21392;SDS011;10857;52.228;21.026;2024-03-29T03:35:06;5.53;;;2.80;;
21392;SDS011;10857;52.228;21.026;2024-03-29T03:37:32;4.60;;;3.00;;
21392;SDS011;10857;52.228;21.026;2024-03-29T03:39:58;4.90;;;2.90;;
21392;SDS011;10857;52.228;21.026;2024-03-29T03:42:24;6.67;;;3.23;;
21392;SDS011;10857;52.228;21.026;2024-03-29T03:44:50;6.53;;;3.10;;
21392;SDS011;10857;52.228;21.026;2024-03-29T03:47:16;5.50;;;3.40;;
21392;SDS011;10857;52.228;21.026;2024-03-29T03:50:01;4.43;;;3.37;;
21392;SDS011;10857;52.228;21.026;2024-03-29T03:52:28;5.83;;;3.63;;
21392;SDS011;10857;52.228;21.026;2024-03-29T03:54:54;7.07;;;3.20;;
21392;SDS011;10857;52.228;21.026;2024-03-29T03:57:20;5.07;;;3.30;;
21392;SDS011;10857;52.228;21.026;2024-03-29T03:59:46;4.90;;;3.10;;
21392;SDS011;10857;52.228;21.026;2024-03-29T04:02:12;6.33;;;3.57;;
21392;SDS011;10857;52.228;21.026;2024-03-29T04:04:38;7.30;;;3.40;;
21392;SDS011;10857;52.228;21.026;2024-03-29T04:07:23;5.20;;;3.30;;
21392;SDS011;10857;52.228;21.026;2024-03-29T04:09:51;4.50;;;3.00;;
21392;SDS011;10857;52.228;21.026;2024-03-29T04:15:02;6.00;;;3.47;;
21392;SDS011;10857;52.228;21.026;2024-03-29T04:17:29;7.20;;;3.83;;
21392;SDS011;10857;52.228;21.026;2024-03-29T04:19:58;6.37;;;3.30;;
21392;SDS011;10857;52.228;21.026;2024-03-29T04:25:10;4.23;;;3.20;;
21392;SDS011;10857;52.228;21.026;2024-03-29T04:27:37;4.20;;;3.20;;
21392;SDS011;10857;52.228;21.026;2024-03-29T04:30:03;6.23;;;3.53;;
21392;SDS011;10857;52.228;21.026;2024-03-29T04:35:14;4.50;;;2.93;;
21392;SDS011;10857;52.228;21.026;2024-03-29T04:40:25;7.37;;;3.20;;
21392;SDS011;10857;52.228;21.026;2024-03-29T04:42:51;5.87;;;3.20;;
21392;SDS011;10857;52.228;21.026;2024-03-29T04:45:18;5.37;;;3.20;;
21392;SDS011;10857;52.228;21.026;2024-03-29T04:47:44;5.13;;;3.20;;
21392;SDS011;10857;52.228;21.026;2024-03-29T04:50:10;4.77;;;3.20;;
21392;SDS011;10857;52.228;21.026;2024-03-29T04:52:37;9.97;;;3.60;;
21392;SDS011;10857;52.228;21.026;2024-03-29T04:55:03;5.33;;;3.23;;
21392;SDS011;10857;52.228;21.026;2024-03-29T04:57:30;5.37;;;3.33;;
21392;SDS011;10857;52.228;21.026;2024-03-29T04:59:56;4.90;;;3.57;;
21392;SDS011;10857;52.228;21.026;2024-03-29T05:02:22;5.60;;;3.43;;
21392;SDS011;10857;52.228;21.026;2024-03-29T05:04:48;5.30;;;3.53;;
21392;SDS011;10857;52.228;21.026;2024-03-29T05:07:14;4.53;;;3.30;;
21392;SDS011;10857;52.228;21.026;2024-03-29T05:09:40;6.30;;;3.30;;
21392;SDS011;10857;52.228;21.026;2024-03-29T05:12:06;5.03;;;3.20;;
21392;SDS011;10857;52.228;21.026;2024-03-29T05:14:51;5.13;;;3.10;;
21392;SDS011;10857;52.228;21.026;2024-03-29T05:17:36;6.03;;;3.23;;
21392;SDS011;10857;52.228;21.026;2024-03-29T05:20:02;5.77;;;3.27;;
21392;SDS011;10857;52.228;21.026;2024-03-29T05:22:30;5.20;;;3.30;;
21392;SDS011;10857;52.228;21.026;2024-03-29T05:24:56;5.17;;;3.33;;
21392;SDS011;10857;52.228;21.026;2024-03-29T05:27:22;6.30;;;3.30;;
21392;SDS011;10857;52.228;21.026;2024-03-29T05:29:48;5.83;;;3.40;;
21392;SDS011;10857;52.228;21.026;2024-03-29T05:32:15;4.57;;;3.30;;
21392;SDS011;10857;52.228;21.026;2024-03-29T05:34:41;4.93;;;3.13;;
21392;SDS011;10857;52.228;21.026;2024-03-29T05:37:25;6.47;;;3.70;;
21392;SDS011;10857;52.228;21.026;2024-03-29T05:39:52;6.43;;;3.67;;
21392;SDS011;10857;52.228;21.026;2024-03-29T05:42:28;5.47;;;3.20;;
21392;SDS011;10857;52.228;21.026;2024-03-29T05:44:57;5.73;;;3.30;;
21392;SDS011;10857;52.228;21.026;2024-03-29T05:47:23;6.77;;;3.67;;
21392;SDS011;10857;52.228;21.026;2024-03-29T05:49:49;5.47;;;3.53;;
21392;SDS011;10857;52.228;21.026;2024-03-29T05:52:15;7.67;;;3.70;;
21392;SDS011;10857;52.228;21.026;2024-03-29T05:54:42;9.17;;;3.60;;
21392;SDS011;10857;52.228;21.026;2024-03-29T05:57:09;4.50;;;3.20;;
21392;SDS011;10857;52.228;21.026;2024-03-29T05:59:36;6.07;;;3.40;;
21392;SDS011;10857;52.228;21.026;2024-03-29T06:02:02;7.10;;;3.50;;
21392;SDS011;10857;52.228;21.026;2024-03-29T06:04:47;5.70;;;3.43;;
21392;SDS011;10857;52.228;21.026;2024-03-29T06:07:32;6.10;;;3.40;;
21392;SDS011;10857;52.228;21.026;2024-03-29T06:09:59;5.93;;;3.23;;
21392;SDS011;10857;52.228;21.026;2024-03-29T06:12:35;7.10;;;3.40;;
21392;SDS011;10857;52.228;21.026;2024-03-29T06:15:04;4.40;;;3.10;;
21392;SDS011;10857;52.228;21.026;2024-03-29T06:17:50;5.03;;;3.20;;
21392;SDS011;10857;52.228;21.026;2024-03-29T06:20:16;7.20;;;3.17;;
21392;SDS011;10857;52.228;21.026;2024-03-29T06:25:27;5.47;;;3.20;;
21392;SDS011;10857;52.228;21.026;2024-03-29T06:27:53;6.80;;;3.43;;
21392;SDS011;10857;52.228;21.026;2024-03-29T06:30:38;7.10;;;3.27;;
21392;SDS011;10857;52.228;21.026;2024-03-29T06:33:06;6.40;;;3.20;;
21392;SDS011;10857;52.228;21.026;2024-03-29T06:35:33;5.30;;;3.10;;
21392;SDS011;10857;52.228;21.026;2024-03-29T06:37:59;5.37;;;3.30;;
21392;SDS011;10857;52.228;21.026;2024-03-29T06:40:25;6.47;;;3.20;;
21392;SDS011;10857;52.228;21.026;2024-03-29T06:43:10;5.60;;;3.20;;
21392;SDS011;10857;52.228;21.026;2024-03-29T06:45:39;4.03;;;3.10;;
21392;SDS011;10857;52.228;21.026;2024-03-29T06:48:05;4.80;;;3.17;;
21392;SDS011;10857;52.228;21.026;2024-03-29T06:50:32;6.10;;;2.80;;
21392;SDS011;10857;52.228;21.026;2024-03-29T06:52:58;3.77;;;2.90;;
21392;SDS011;10857;52.228;21.026;2024-03-29T06:55:24;6.67;;;3.00;;
21392;SDS011;10857;52.228;21.026;2024-03-29T06:57:50;5.40;;;3.30;;
21392;SDS011;10857;52.228;21.026;2024-03-29T07:00:16;4.10;;;2.63;;
21392;SDS011;10857;52.228;21.026;2024-03-29T07:02:45;3.57;;;2.70;;
21392;SDS011;10857;52.228;21.026;2024-03-29T07:05:11;4.68;;;2.83;;
21392;SDS011;10857;52.228;21.026;2024-03-29T07:07:38;4.53;;;2.80;;
21392;SDS011;10857;52.228;21.026;2024-03-29T07:10:06;4.20;;;2.50;;
21392;SDS011;10857;52.228;21.026;2024-03-29T07:15:17;4.00;;;2.50;;
21392;SDS011;10857;52.228;21.026;2024-03-29T07:17:43;3.80;;;2.50;;
21392;SDS011;10857;52.228;21.026;2024-03-29T07:20:10;3.87;;;2.60;;
21392;SDS011;10857;52.228;21.026;2024-03-29T07:25:22;5.60;;;2.47;;
21392;SDS011;10857;52.228;21.026;2024-03-29T07:27:48;6.63;;;2.80;;
21392;SDS011;10857;52.228;21.026;2024-03-29T07:30:15;5.97;;;2.57;;
21392;SDS011;10857;52.228;21.026;2024-03-29T07:32:42;3.97;;;2.30;;
21392;SDS011;10857;52.228;21.026;2024-03-29T07:35:08;6.30;;;2.37;;
21392;SDS011;10857;52.228;21.026;2024-03-29T07:37:34;8.07;;;2.50;;
21392;SDS011;10857;52.228;21.026;2024-03-29T07:40:00;4.85;;;2.50;;
21392;SDS011;10857;52.228;21.026;2024-03-29T07:42:27;9.73;;;2.38;;
21392;SDS011;10857;52.228;21.026;2024-03-29T07:44:53;6.95;;;2.40;;
21392;SDS011;10857;52.228;21.026;2024-03-29T07:47:19;5.63;;;2.70;;
21392;SDS011;10857;52.228;21.026;2024-03-29T07:49:47;3.88;;;2.50;;
21392;SDS011;10857;52.228;21.026;2024-03-29T07:52:13;2.95;;;2.40;;
21392;SDS011;10857;52.228;21.026;2024-03-29T07:54:39;4.85;;;2.30;;
21392;SDS011;10857;52.228;21.026;2024-03-29T07:57:05;4.00;;;2.20;;
21392;SDS011;10857;52.228;21.026;2024-03-29T07:59:34;4.88;;;2.63;;
21392;SDS011;10857;52.228;21.026;2024-03-29T08:02:00;4.00;;;2.25;;
21392;SDS011;10857;52.228;21.026;2024-03-29T08:04:27;5.47;;;2.45;;
21392;SDS011;10857;52.228;21.026;2024-03-29T08:06:54;4.70;;;2.20;;
21392;SDS011;10857;52.228;21.026;2024-03-29T08:09:20;4.13;;;2.50;;
21392;SDS011;10857;52.228;21.026;2024-03-29T08:11:46;2.78;;;2.03;;
21392;SDS011;10857;52.228;21.026;2024-03-29T08:14:12;3.83;;;1.80;;
21392;SDS011;10857;52.228;21.026;2024-03-29T08:16:38;4.68;;;2.00;;
21392;SDS011;10857;52.228;21.026;2024-03-29T08:19:04;3.05;;;1.70;;
21392;SDS011;10857;52.228;21.026;2024-03-29T08:21:30;3.47;;;1.63;;
21392;SDS011;10857;52.228;21.026;2024-03-29T08:23:56;2.97;;;1.42;;
21392;SDS011;10857;52.228;21.026;2024-03-29T08:26:23;3.33;;;1.60;;
21392;SDS011;10857;52.228;21.026;2024-03-29T08:28:50;2.70;;;1.73;;
21392;SDS011;10857;52.228;21.026;2024-03-29T08:31:34;5.00;;;1.58;;
21392;SDS011;10857;52.228;21.026;2024-03-29T08:34:00;15.02;;;1.95;;
21392;SDS011;10857;52.228;21.026;2024-03-29T08:36:27;4.55;;;2.20;;
21392;SDS011;10857;52.228;21.026;2024-03-29T08:38:53;9.00;;;2.40;;
21392;SDS011;10857;52.228;21.026;2024-03-29T08:41:19;5.47;;;2.03;;
21392;SDS011;10857;52.228;21.026;2024-03-29T08:43:45;5.72;;;2.08;;
21392;SDS011;10857;52.228;21.026;2024-03-29T08:46:11;5.03;;;1.90;;
21392;SDS011;10857;52.228;21.026;2024-03-29T08:48:37;4.13;;;1.90;;
21392;SDS011;10857;52.228;21.026;2024-03-29T08:51:07;6.97;;;2.00;;
21392;SDS011;10857;52.228;21.026;2024-03-29T08:53:33;4.05;;;1.70;;
21392;SDS011;10857;52.228;21.026;2024-03-29T08:55:59;4.63;;;1.70;;
21392;SDS011;10857;52.228;21.026;2024-03-29T08:58:25;4.15;;;1.75;;
21392;SDS011;10857;52.228;21.026;2024-03-29T09:00:54;4.65;;;1.75;;
21392;SDS011;10857;52.228;21.026;2024-03-29T09:03:22;3.92;;;2.08;;
21392;SDS011;10857;52.228;21.026;2024-03-29T09:05:48;2.95;;;1.70;;
21392;SDS011;10857;52.228;21.026;2024-03-29T09:08:15;2.47;;;1.70;;
21392;SDS011;10857;52.228;21.026;2024-03-29T09:10:42;3.03;;;1.80;;
21392;SDS011;10857;52.228;21.026;2024-03-29T09:13:08;4.45;;;1.80;;
21392;SDS011;10857;52.228;21.026;2024-03-29T09:15:36;3.72;;;1.70;;
21392;SDS011;10857;52.228;21.026;2024-03-29T09:18:03;4.45;;;1.70;;
21392;SDS011;10857;52.228;21.026;2024-03-29T09:20:36;5.30;;;1.92;;
21392;SDS011;10857;52.228;21.026;2024-03-29T09:23:03;75.57;;;17.10;;
21392;SDS011;10857;52.228;21.026;2024-03-29T09:25:30;5.70;;;2.78;;
21392;SDS011;10857;52.228;21.026;2024-03-29T09:27:57;11.68;;;3.95;;
21392;SDS011;10857;52.228;21.026;2024-03-29T09:30:23;21.33;;;6.15;;
21392;SDS011;10857;52.228;21.026;2024-03-29T09:32:49;59.00;;;16.00;;
21392;SDS011;10857;52.228;21.026;2024-03-29T09:35:17;32.28;;;9.70;;
21392;SDS011;10857;52.228;21.026;2024-03-29T09:37:43;18.77;;;5.47;;
21392;SDS011;10857;52.228;21.026;2024-03-29T09:40:10;5.18;;;2.10;;
21392;SDS011;10857;52.228;21.026;2024-03-29T09:42:38;4.50;;;2.38;;
21392;SDS011;10857;52.228;21.026;2024-03-29T09:45:05;7.90;;;3.33;;
21392;SDS011;10857;52.228;21.026;2024-03-29T09:47:32;6.88;;;2.63;;
21392;SDS011;10857;52.228;21.026;2024-03-29T09:50:04;5.50;;;2.10;;
21392;SDS011;10857;52.228;21.026;2024-03-29T09:52:49;4.68;;;2.30;;
21392;SDS011;10857;52.228;21.026;2024-03-29T09:55:16;4.25;;;1.80;;
21392;SDS011;10857;52.228;21.026;2024-03-29T09:57:45;7.07;;;2.40;;
21392;SDS011;10857;52.228;21.026;2024-03-29T10:00:11;4.05;;;2.17;;
21392;SDS011;10857;52.228;21.026;2024-03-29T10:02:38;4.35;;;2.28;;
21392;SDS011;10857;52.228;21.026;2024-03-29T10:05:05;4.47;;;1.80;;
21392;SDS011;10857;52.228;21.026;2024-03-29T10:07:33;3.30;;;2.13;;
21392;SDS011;10857;52.228;21.026;2024-03-29T10:10:02;4.32;;;2.08;;
21392;SDS011;10857;52.228;21.026;2024-03-29T10:12:28;5.15;;;2.10;;
21392;SDS011;10857;52.228;21.026;2024-03-29T10:14:55;3.85;;;2.45;;
21392;SDS011;10857;52.228;21.026;2024-03-29T10:17:31;3.35;;;2.00;;
21392;SDS011;10857;52.228;21.026;2024-03-29T10:20:01;5.18;;;2.40;;
21392;SDS011;10857;52.228;21.026;2024-03-29T10:22:35;6.93;;;2.25;;
21392;SDS011;10857;52.228;21.026;2024-03-29T10:25:05;4.90;;;2.20;;
21392;SDS011;10857;52.228;21.026;2024-03-29T10:27:32;8.30;;;2.20;;
21392;SDS011;10857;52.228;21.026;2024-03-29T10:30:17;12.73;;;2.95;;
21392;SDS011;10857;52.228;21.026;2024-03-29T10:32:45;6.65;;;2.35;;
21392;SDS011;10857;52.228;21.026;2024-03-29T10:35:11;3.75;;;2.00;;
21392;SDS011;10857;52.228;21.026;2024-03-29T10:37:37;2.90;;;1.60;;
21392;SDS011;10857;52.228;21.026;2024-03-29T10:40:09;3.70;;;1.80;;
21392;SDS011;10857;52.228;21.026;2024-03-29T10:42:36;5.50;;;1.50;;
21392;SDS011;10857;52.228;21.026;2024-03-29T10:45:04;4.55;;;1.50;;
21392;SDS011;10857;52.228;21.026;2024-03-29T10:47:32;2.88;;;1.50;;
21392;SDS011;10857;52.228;21.026;2024-03-29T10:49:59;2.58;;;1.42;;
21392;SDS011;10857;52.228;21.026;2024-03-29T10:52:26;2.75;;;1.58;;
21392;SDS011;10857;52.228;21.026;2024-03-29T10:54:52;2.72;;;1.70;;
21392;SDS011;10857;52.228;21.026;2024-03-29T10:57:22;5.55;;;1.80;;
21392;SDS011;10857;52.228;21.026;2024-03-29T11:00:03;4.97;;;1.58;;
21392;SDS011;10857;52.228;21.026;2024-03-29T11:02:51;7.97;;;1.90;;
21392;SDS011;10857;52.228;21.026;2024-03-29T11:05:30;2.90;;;1.35;;
21392;SDS011;10857;52.228;21.026;2024-03-29T11:07:57;3.88;;;1.38;;
21392;SDS011;10857;52.228;21.026;2024-03-29T11:10:36;2.45;;;1.55;;
21392;SDS011;10857;52.228;21.026;2024-03-29T11:13:25;2.90;;;1.20;;
21392;SDS011;10857;52.228;21.026;2024-03-29T11:15:55;4.65;;;1.25;;
21392;SDS011;10857;52.228;21.026;2024-03-29T11:18:21;3.00;;;1.30;;
21392;SDS011;10857;52.228;21.026;2024-03-29T11:20:50;2.40;;;1.20;;
21392;SDS011;10857;52.228;21.026;2024-03-29T11:23:21;2.03;;;1.30;;
21392;SDS011;10857;52.228;21.026;2024-03-29T11:26:05;2.45;;;1.30;;
21392;SDS011;10857;52.228;21.026;2024-03-29T11:28:33;3.70;;;1.20;;
21392;SDS011;10857;52.228;21.026;2024-03-29T11:31:01;3.58;;;1.40;;
21392;SDS011;10857;52.228;21.026;2024-03-29T11:36:17;2.45;;;1.30;;
21392;SDS011;10857;52.228;21.026;2024-03-29T11:38:46;5.85;;;1.40;;
21392;SDS011;10857;52.228;21.026;2024-03-29T11:41:14;2.58;;;1.30;;
21392;SDS011;10857;52.228;21.026;2024-03-29T11:43:54;5.25;;;1.50;;
21392;SDS011;10857;52.228;21.026;2024-03-29T11:46:21;4.63;;;1.38;;
21392;SDS011;10857;52.228;21.026;2024-03-29T11:48:48;2.92;;;1.30;;
21392;SDS011;10857;52.228;21.026;2024-03-29T11:51:18;6.78;;;1.33;;
21392;SDS011;10857;52.228;21.026;2024-03-29T11:53:47;2.72;;;1.20;;
21392;SDS011;10857;52.228;21.026;2024-03-29T11:59:03;1.63;;;1.00;;
21392;SDS011;10857;52.228;21.026;2024-03-29T12:01:29;2.67;;;1.38;;
21392;SDS011;10857;52.228;21.026;2024-03-29T12:03:57;2.08;;;1.20;;
21392;SDS011;10857;52.228;21.026;2024-03-29T12:06:23;4.90;;;1.35;;
21392;SDS011;10857;52.228;21.026;2024-03-29T12:08:50;3.45;;;1.48;;
21392;SDS011;10857;52.228;21.026;2024-03-29T12:11:18;3.90;;;1.30;;
21392;SDS011;10857;52.228;21.026;2024-03-29T12:13:44;2.63;;;1.48;;
21392;SDS011;10857;52.228;21.026;2024-03-29T12:16:11;3.25;;;1.30;;
21392;SDS011;10857;52.228;21.026;2024-03-29T12:18:38;3.17;;;1.50;;
21392;SDS011;10857;52.228;21.026;2024-03-29T12:23:50;5.95;;;1.60;;
21392;SDS011;10857;52.228;21.026;2024-03-29T12:26:16;4.68;;;1.50;;
21392;SDS011;10857;52.228;21.026;2024-03-29T12:28:48;3.55;;;1.40;;
21392;SDS011;10857;52.228;21.026;2024-03-29T12:31:14;3.30;;;1.27;;
21392;SDS011;10857;52.228;21.026;2024-03-29T12:33:40;5.47;;;1.52;;
21392;SDS011;10857;52.228;21.026;2024-03-29T12:36:17;3.00;;;1.30;;
21392;SDS011;10857;52.228;21.026;2024-03-29T12:38:45;3.40;;;1.45;;
21392;SDS011;10857;52.228;21.026;2024-03-29T12:41:21;4.55;;;1.50;;
21392;SDS011;10857;52.228;21.026;2024-03-29T12:43:50;2.20;;;1.40;;
21392;SDS011;10857;52.228;21.026;2024-03-29T12:46:17;4.00;;;1.40;;
21392;SDS011;10857;52.228;21.026;2024-03-29T12:48:43;4.07;;;1.55;;
21392;SDS011;10857;52.228;21.026;2024-03-29T12:51:09;4.63;;;1.48;;
21392;SDS011;10857;52.228;21.026;2024-03-29T12:53:38;2.35;;;1.42;;
21392;SDS011;10857;52.228;21.026;2024-03-29T12:56:05;3.15;;;1.58;;
21392;SDS011;10857;52.228;21.026;2024-03-29T12:58:31;3.10;;;1.52;;
21392;SDS011;10857;52.228;21.026;2024-03-29T13:00:57;6.03;;;1.40;;
21392;SDS011;10857;52.228;21.026;2024-03-29T13:03:23;7.38;;;1.67;;
21392;SDS011;10857;52.228;21.026;2024-03-29T13:05:49;2.58;;;1.40;;
21392;SDS011;10857;52.228;21.026;2024-03-29T13:08:15;3.05;;;1.23;;
21392;SDS011;10857;52.228;21.026;2024-03-29T13:10:42;2.85;;;1.30;;
21392;SDS011;10857;52.228;21.026;2024-03-29T13:13:09;3.83;;;1.38;;
21392;SDS011;10857;52.228;21.026;2024-03-29T13:18:20;1.55;;;1.10;;
21392;SDS011;10857;52.228;21.026;2024-03-29T13:20:46;2.28;;;1.30;;
21392;SDS011;10857;52.228;21.026;2024-03-29T13:23:12;3.15;;;1.40;;
21392;SDS011;10857;52.228;21.026;2024-03-29T13:25:39;2.78;;;1.10;;
21392;SDS011;10857;52.228;21.026;2024-03-29T13:28:05;3.72;;;1.30;;
21392;SDS011;10857;52.228;21.026;2024-03-29T13:30:32;2.58;;;1.25;;
21392;SDS011;10857;52.228;21.026;2024-03-29T13:32:59;2.58;;;1.30;;
21392;SDS011;10857;52.228;21.026;2024-03-29T13:35:25;4.88;;;1.50;;
21392;SDS011;10857;52.228;21.026;2024-03-29T13:37:51;3.08;;;1.50;;
21392;SDS011;10857;52.228;21.026;2024-03-29T13:40:21;2.28;;;1.33;;
21392;SDS011;10857;52.228;21.026;2024-03-29T13:43:08;3.40;;;1.20;;
21392;SDS011;10857;52.228;21.026;2024-03-29T13:45:34;2.92;;;1.30;;
21392;SDS011;10857;52.228;21.026;2024-03-29T13:48:00;3.10;;;1.13;;
21392;SDS011;10857;52.228;21.026;2024-03-29T13:50:44;3.58;;;1.27;;
21392;SDS011;10857;52.228;21.026;2024-03-29T13:53:10;3.45;;;1.13;;
21392;SDS011;10857;52.228;21.026;2024-03-29T13:55:38;2.47;;;1.20;;
21392;SDS011;10857;52.228;21.026;2024-03-29T13:58:04;2.60;;;0.93;;
21392;SDS011;10857;52.228;21.026;2024-03-29T14:00:30;2.78;;;1.00;;
21392;SDS011;10857;52.228;21.026;2024-03-29T14:02:57;2.92;;;1.27;;
21392;SDS011;10857;52.228;21.026;2024-03-29T14:05:24;2.20;;;1.05;;
21392;SDS011;10857;52.228;21.026;2024-03-29T14:07:50;3.05;;;1.20;;
21392;SDS011;10857;52.228;21.026;2024-03-29T14:10:16;1.83;;;1.20;;
21392;SDS011;10857;52.228;21.026;2024-03-29T14:12:43;2.33;;;1.10;;
21392;SDS011;10857;52.228;21.026;2024-03-29T14:15:11;1.90;;;1.00;;
21392;SDS011;10857;52.228;21.026;2024-03-29T14:17:37;5.20;;;1.15;;
21392;SDS011;10857;52.228;21.026;2024-03-29T14:20:03;3.50;;;1.23;;
21392;SDS011;10857;52.228;21.026;2024-03-29T14:22:30;2.97;;;1.25;;
21392;SDS011;10857;52.228;21.026;2024-03-29T14:24:59;3.42;;;1.13;;
21392;SDS011;10857;52.228;21.026;2024-03-29T14:27:25;4.65;;;1.10;;
21392;SDS011;10857;52.228;21.026;2024-03-29T14:29:52;3.30;;;0.90;;
21392;SDS011;10857;52.228;21.026;2024-03-29T14:32:18;2.53;;;1.00;;
21392;SDS011;10857;52.228;21.026;2024-03-29T14:34:46;2.45;;;1.10;;
21392;SDS011;10857;52.228;21.026;2024-03-29T14:37:31;4.32;;;1.15;;
21392;SDS011;10857;52.228;21.026;2024-03-29T14:39:57;3.05;;;1.23;;
21392;SDS011;10857;52.228;21.026;2024-03-29T14:42:24;3.30;;;1.10;;
21392;SDS011;10857;52.228;21.026;2024-03-29T14:44:50;1.33;;;0.88;;
21392;SDS011;10857;52.228;21.026;2024-03-29T14:47:16;3.42;;;1.00;;
21392;SDS011;10857;52.228;21.026;2024-03-29T14:49:42;3.60;;;1.10;;
21392;SDS011;10857;52.228;21.026;2024-03-29T14:52:09;1.35;;;0.90;;
21392;SDS011;10857;52.228;21.026;2024-03-29T14:54:35;3.40;;;1.25;;
21392;SDS011;10857;52.228;21.026;2024-03-29T14:57:19;3.92;;;2.25;;
21392;SDS011;10857;52.228;21.026;2024-03-29T14:59:48;2.10;;;1.38;;
21392;SDS011;10857;52.228;21.026;2024-03-29T15:02:14;2.10;;;1.13;;
21392;SDS011;10857;52.228;21.026;2024-03-29T15:04:41;3.47;;;1.15;;
21392;SDS011;10857;52.228;21.026;2024-03-29T15:07:07;3.97;;;1.08;;
21392;SDS011;10857;52.228;21.026;2024-03-29T15:09:33;2.67;;;1.48;;
21392;SDS011;10857;52.228;21.026;2024-03-29T15:12:03;2.38;;;1.20;;
21392;SDS011;10857;52.228;21.026;2024-03-29T15:14:30;1.38;;;1.17;;